Startpagina
METAR-TAF:

METAR-TAF

Vliegvelden :

Luchthaven Brno-Tuřany

Brno, Tsjechië

breedte: 49-09N, lengte: 016-42E, hoogte: 241 m

Actueel weer

Dit bericht is 29 minuten geleden gemaakt, om 00:00 UTC
Wind 4 kt uit het noordwesten
Temperatuur 12°C
Vochtigheid 67%
Druk 1020 hPa
Zicht 10 km of meer
geen wolken onder 1500 m en geen cumulonimbus

METAR: LKTB 150000Z 32004KT CAVOK 12/06 Q1020 NOSIG

Tijdstip: 02:29 (00:29 UTC)

Verwachting

Dit bericht is 1 uur en het 29 minuten geleden gemaakt, om 23:00 UTC
Verwachting geldig van 15 om 00 UTC tot 16 om 06 UTC
Wind 2 kt uit variabele richting
Zicht 10 km of meer
geen wolken onder 1500 m en geen cumulonimbus
Wijzigt naar
van 15 om 09 UTC tot 15 om 11 UTC
Wind 4 kt uit het zuidwesten
Wijzigt naar
van 15 om 15 UTC tot 15 om 17 UTC
Wind 4 kt uit het noordnoordoosten

TAF: LKTB 142300Z 1500/1606 VRB02KT CAVOK BECMG 1509/1511 22004KT BECMG 1515/1517 03004KT

Waarnemingen en weersverwachtingen van meer dan 4000 vliegvelden (METAR en TAF).

De beschikbare stations zijn de gele en rode punten op de kaart.

Ga met uw muis naar het station om de naam te zien.

Klik dan om waarnemingen en weersverwachtingen te zien.

kaart wijzigen: klik op de groene knoppen met een zwart kruis om in te zoomen, op de groene knop met een streepje om uit te zoomen of op de groene pijlen voor aangrenzende kaarten.


METAR-TAF: